Aérodrome :
LOGIN :

S'inscrire | Disclaimer

   EN    FR    IT 

 










Légende :    VFR   VFR Marginal   IFR   IFR Intensif   IFR Très Intensif
Visi : 
Plafond : 
>= 8 km
>= 3000ft
5 à 8 km
1000 à 3000 ft
1500m à 5 km
500 à 1000 ft
800 à 1500m
200 à 500 ft
< 800m
< 200 ft
Symboles :   Orages  Brouillard  Fortes neiges  Fortes précipitations  Vent > 20 kt
SIGMETs :   Divers  Orages  Givrage  Turbulence  Onde Orograph.  Cendres Volcan.







- Altitude de l'aérodrome : 776 ft
- Code IATA : RMS


ETAR - Ramstein Air Base

DERNIER METAR :
  • 261656Z AUTO 03007KT 9999 CLR 35/19 A3015 RMK AO2 SLP199 T03510186 $

METARs EXPIRÉS :
  • 261556Z AUTO 36009KT 9999 CLR 35/19 A3016 RMK AO2 SLP204 T03530188 $
  • 261456Z AUTO 00000KT 9999 CLR 36/18 A3018 RMK AO2 SLP209 T03560182 57012

TAF TAF ETAR
Valide du 26 à 10h jusqu'au 27 à 16h UTC


261018Z 2610/2716 VRB06KT 9999 SKC QNH3019INS
TEMPO 2703/2706 5000 BR
BECMG 2705/2706 05009KT 9999 SKC QNH3022INS TX34/2615Z TN14/2704Z
Pas de NOTAMs connus pour ce terrain.



MET'MAP, la Météo Aéronautique d'un coup d'oeil ! - Copyright ORBIFLY Décembre 2007 - Disclaimer

ORBIFLY MET'MAP TEAM :

Programmation & Développement : Alexandra Zaïnal
Conception & Développement : Baudouin d'Aumeries
Co-Programmation & Développement : Marc-Olivier Méhu
Soutien technique & logistique : Manuel Goepfert

Contact : metmap@orbifly.com




SOURCES & CREDITS :

   NOAA